Tiempo atmosférico en la estación meteorológica de Benahavis, Málaga (399 m.)



Fecha
DESCASC
Temp. máxima en grados centígrados (hora)
DESCASC
Temp. mínima en grados centígrados (hora)
DESCASC
Temp. media en grados centígrados
DESCASC
Racha de viento máxima en m/sg (hora)
DESCASC
Velocidad máxima media en intervalos de 10 minutos(hora)
DESCASC
Precipitaciones diarias en mm
DESCASC
Precipitaciones de 00:00 a 06:00 en mm
DESCASC
Precipitaciones de 06:00 a 12:00 en mm
DESCASC
Precipitaciones de 12:00 a 18:00 en mm
DESCASC
Precipitaciones de 18:00 a 24:00 en mm
DESCASC
26-03-2020 21.7 (15:00) 7.3 (04:10) 14.5 12.22 (15:40) 5.56 (17:10) 0 0 0 0 0
25-03-2020 12 (15:50) 8.9 (23:40) 10.4 3.33 (05:50) 1.67 (05:50) 13.8 2.4 10.6 0.6 0.2
24-03-2020 15.1 (12:50) 10.8 (07:00) 13 8.89 (02:30) 4.72 (02:30) 4.4 0 2.6 0.8 1
23-03-2020 13.8 (15:40) 6.8 (06:50) 10.3 8.33 (19:50) 4.17 (20:00) 3.4 0 0 2.8 0.6
22-03-2020 12.4 (15:00) 7 (07:30) 9.7 5.28 (15:00) 3.33 (12:00) 5.2 2.8 0.2 2.2 0
21-03-2020 14.2 (13:20) 6.9 (00:00) 10.5 10.28 (01:50) 6.11 (15:30) 37.6 31 1.2 5.2 0.2
20-03-2020 14.8 (16:20) 11.5 (00:00) 13.2 8.33 (23:50) 2.5 (10:30) 4.6 0 0 0 4.6
19-03-2020 15.4 (16:50) 12.3 (00:00) 13.8 8.89 (13:40) 2.78 (11:40) 0 0 0 0 0
18-03-2020 16.7 (14:50) 12.9 (00:00) 14.8 13.33 (03:10) 5 (03:00) 0 0 0 0 0
17-03-2020 13.7 (23:59) 6.4 (00:00) 10 10 (14:00) 3.61 (21:00) 7.4 0 7.4 0 0
16-03-2020 18.4 (15:20) 9.9 (00:00) 14.1 12.22 (12:00) 5.28 (12:10) 0 0 0 0 0
15-03-2020 16.2 (13:20) 10.5 (00:00) 13.4 5.28 (13:20) 2.22 (06:10) 0 0 0 0 0
14-03-2020 17.2 (14:30) 10.2 (00:00) 13.7 4.72 (12:40) 2.22 (13:10) 0 0 0 0 0
13-03-2020 23.9 (12:50) 13.1 (23:59) 18.5 5 (16:00) 3.61 (16:30) 0 0 0 0 0
12-03-2020 26.5 (16:20) 14.3 (00:00) 20.4 5.28 (13:40) 2.5 (17:20) 0 0 0 0 0
11-03-2020 27 (16:50) 11.2 (00:00) 19.1 6.11 (14:50) 3.61 (14:20) 0 0 0 0 0
10-03-2020 22 (13:00) 12 (00:00) 17 8.61 (14:20) 3.89 (07:10) 0 0 0 0 0
09-03-2020 24.7 (16:20) 13.1 (00:00) 18.9 6.39 (03:50) 3.33 (21:00) 0 0 0 0 0
08-03-2020 21.3 (16:10) 7.7 (00:00) 14.5 5.28 (15:30) 2.78 (12:20) 0 0 0 0 0
07-03-2020 19.6 (14:20) 10.1 (00:00) 14.9 9.17 (11:00) 6.39 (05:30) 0 0 0 0 0
06-03-2020 19.8 (16:00) 10.4 (00:00) 15.1 14.44 (12:30) 7.22 (05:50) 0 0 0 0 0
05-03-2020 22.8 (13:30) 11.9 (00:00) 17.3 12.5 (17:50) 6.39 (16:00) 0 0 0 0 0
04-03-2020 23.4 (17:40) 11.1 (00:00) 17.3 8.33 (17:20) 4.44 (17:20) 0 0 0 0 0
03-03-2020 21.2 (16:30) 9.8 (00:00) 15.5 12.5 (15:00) 7.22 (16:00) 0 0 0 0 0
02-03-2020 22.6 (14:30) 12.7 (00:00) 17.7 16.67 (14:40) 8.06 (14:50) 0.2 0 0.2 0 0
01-03-2020 21.5 (16:40) 11.2 (00:00) 16.3 16.11 (03:40) 6.11 (16:00) 0 0 0 0 0
29-02-2020 24.4 (15:40) 10.2 (00:00) 17.3 10.83 (21:20) 5.83 (14:20) 0 0 0 0 0
28-02-2020 19.7 (15:50) 10.7 (00:00) 15.2 5.56 (02:40) 3.33 (02:40) 0 0 0 0 0

Gráficas

Temp. máximas Temp. mínimas Temp. medias Precipitaciones Rachas de viento máximas Velocidades máximas media en intervalos de 10 minutos

Datos horarios

Fecha y hora oficial Temperatura (ºC) Velocidad del viento (km/h) Dirección del viento Racha (km/h) Dirección de racha Precipitación (mm) Presión (hPa) Tendencia (hPa) Humedad (%)
2020-03-28 23:00:00 9.3 0 Calma 12 Nordeste 0 -- -- 92
2020-03-28 22:00:00 10.4 0 Calma 4 Sudeste 0 -- -- 95
2020-03-28 21:00:00 10.4 2 Nordeste 4 Nordeste 0 -- -- 94
2020-03-28 20:00:00 10.7 3 Nordeste 7 Nordeste 0 -- -- 91
2020-03-28 19:00:00 11.1 3 Nordeste 10 Nordeste 0 -- -- 87
2020-03-28 18:00:00 11.6 4 Este 9 Este 0 -- -- 89
2020-03-28 17:00:00 10.8 5 Norte 10 Nordeste 0 -- -- 93
2020-03-28 16:00:00 10.5 3 Nordeste 14 Nordeste 0 -- -- 96
2020-03-28 15:00:00 10.2 5 Nordeste 20 Nordeste 0.2 -- -- 96
2020-03-28 14:00:00 10.3 5 Nordeste 23 Este 1.8 -- -- 97
2020-03-28 13:00:00 11.3 5 Nordeste 21 Este 0 -- -- 94
2020-03-28 12:00:00 13.3 10 Nordeste 23 Este 0 -- -- 83
2020-03-28 11:00:00 14.2 9 Nordeste 22 Norte 0 -- -- 76
2020-03-28 10:00:00 13.3 3 Nordeste 14 Nordeste 0 -- -- 82
2020-03-28 09:00:00 11.9 4 Nordeste 11 Norte 0 -- -- 87
2020-03-28 08:00:00 10.2 0 Calma 3 Este 0 -- -- 95
2020-03-28 07:00:00 9.5 0 Calma 3 Nordeste 0 -- -- 96
2020-03-28 06:00:00 9.3 0 Calma 2 Nordeste 0 -- -- 93
2020-03-28 05:00:00 9.2 0 Calma 2 Sudeste 0 -- -- 94
2020-03-28 04:00:00 9 0 Calma 5 Nordeste 0 -- -- 90
2020-03-28 03:00:00 9.6 4 Nordeste 9 Este 0 -- -- 89
2020-03-28 02:00:00 10 6 Nordeste 14 Nordeste 0 -- -- 86
2020-03-28 01:00:00 9.9 5 Norte 12 Nordeste 0 -- -- 90
2020-03-28 00:00:00 9.6 2 Este 5 Este 0 -- -- 94
2020-03-27 23:00:00 10.4 3 Norte 14 Nordeste 0 -- -- 93
2020-03-27 22:00:00 11.1 2 Nordeste 6 Nordeste 0 -- -- 93
2020-03-27 21:00:00 11.3 3 Nordeste 15 Nordeste 0 -- -- 92
2020-03-27 20:00:00 11.9 5 Este 14 Nordeste 0 -- -- 90
2020-03-27 19:00:00 12.7 4 Nordeste 14 Nordeste 0 -- -- 86
2020-03-27 18:00:00 13.7 7 Nordeste 20 Nordeste 0 -- -- 78
2020-03-27 17:00:00 15.2 4 Nordeste 20 Este 0 -- -- 70
2020-03-27 16:00:00 18.2 9 Sudoeste 29 Sudoeste 0 -- -- 62
2020-03-27 15:00:00 18.2 14 Sudoeste 28 Sudoeste 0 -- -- 48
2020-03-27 14:00:00 15.5 5 Sudoeste 16 Sudoeste 0 -- -- 64
2020-03-27 13:00:00 14.5 4 Oeste 16 Sudoeste 0 -- -- 72
2020-03-27 12:00:00 14.2 8 Sur 20 Sudoeste 0 -- -- 77
2020-03-27 11:00:00 13.7 5 Sudeste 14 Este 0 -- -- 80
2020-03-27 10:00:00 14 4 Sur 15 Norte 0 -- -- 75
2020-03-27 09:00:00 10.6 0 Calma 4 Sudoeste 0 -- -- 65
2020-03-27 08:00:00 8.8 3 Nordeste 9 Este 0 -- -- 67
2020-03-27 07:00:00 9.6 5 Nordeste 14 Nordeste 0 -- -- 65
2020-03-27 06:00:00 9 5 Este 13 Nordeste 0 -- -- 65
2020-03-27 05:00:00 9 0 Calma 3 Sudoeste 0 -- -- 73
2020-03-27 04:00:00 10.8 0 Calma 10 Norte 0 -- -- 70
2020-03-27 03:00:00 10.4 0 Calma 6 Norte 0 -- -- 76
2020-03-27 02:00:00 10.6 0 Calma 5 Sudoeste 0 -- -- 76
2020-03-27 01:00:00 10.5 3 Sudoeste 5 Sur 0 -- -- 79
2020-03-27 00:00:00 11 0 Calma 9 Sudoeste 0 -- -- 76
2020-03-26 23:00:00 11.9 4 Sudoeste 18 Oeste 0 -- -- 73
2020-03-26 22:00:00 12.6 3 Sudoeste 11 Sudoeste 0 -- -- 70
2020-03-26 21:00:00 12.9 3 Sudoeste 13 Sudoeste 0 -- -- 71
2020-03-26 20:00:00 14.8 5 Sudoeste 27 Sudoeste 0 -- -- 61
2020-03-26 19:00:00 17.2 12 Sudoeste 26 Sudoeste 0 -- -- 52
2020-03-26 18:00:00 19 11 Sudoeste 42 Sudoeste 0 -- -- 46
2020-03-26 17:00:00 20.9 16 Sudoeste 31 Oeste 0 -- -- 43
2020-03-26 16:00:00 21.5 17 Sudoeste 44 Sudoeste 0 -- -- 40
2020-03-26 15:00:00 21.7 16 Sudoeste 36 Sudoeste 0 -- -- 40
2020-03-26 14:00:00 21.2 11 Sudoeste 34 Sudoeste 0 -- -- 48
2020-03-26 13:00:00 20.2 16 Sudoeste 31 Sudoeste 0 -- -- 54
2020-03-26 12:00:00 18.6 15 Sudoeste 34 Sudoeste 0 -- -- 56
2020-03-26 11:00:00 17 14 Sudoeste 37 Sudoeste 0 -- -- 64
2020-03-26 10:00:00 15.2 2 Sudeste 10 Sudeste 0 -- -- 74
2020-03-26 09:00:00 10.8 2 Oeste 6 Sur 0 -- -- 93
2020-03-26 08:00:00 8.5 3 Sudoeste 5 Nordeste 0 -- -- 97
2020-03-26 07:00:00 7.9 0 Calma 7 Nordeste 0 -- -- 97
2020-03-26 06:00:00 7.6 4 Nordeste 12 Nordeste 0 -- -- 96
2020-03-26 05:00:00 7.7 7 Nordeste 11 Este 0 -- -- 95
2020-03-26 04:00:00 7.4 2 Sur 8 Sur 0 -- -- 97
2020-03-26 03:00:00 7.5 3 Nordeste 5 Sudoeste 0 -- -- 97
2020-03-26 02:00:00 7.7 0 Calma 3 Sudeste 0 -- -- 96
2020-03-26 01:00:00 8.3 3 Este 5 Nordeste 0 -- -- 94
2020-03-26 00:00:00 9 5 Este 8 Nordeste 0 -- -- 91
2020-03-25 23:00:00 9.3 2 Sudoeste 4 Sudoeste 0 -- -- 91
2020-03-25 22:00:00 9.7 0 Calma 4 Sur 0 -- -- 91
2020-03-25 21:00:00 10 0 Calma 2 Sur 0 -- -- 91
2020-03-25 20:00:00 10.3 0 Calma 9 Sudoeste 0 -- -- 88
2020-03-25 19:00:00 10.9 4 Sudoeste 8 Sudoeste 0.2 -- -- 89
2020-03-25 18:00:00 11.2 2 Sur 8 Sudoeste 0 -- -- 84
2020-03-25 17:00:00 11.6 0 Calma 8 Sudoeste 0 -- -- 85
2020-03-25 16:00:00 12 4 Sudoeste 9 Sudoeste 0 -- -- 85
2020-03-25 15:00:00 11.1 2 Norte 5 Nordeste 0 -- -- 85
2020-03-25 14:00:00 10.4 0 Calma 4 Norte 0.4 -- -- 96
2020-03-25 13:00:00 10.1 3 Norte 12 Nordeste 0.2 -- -- 91
2020-03-25 12:00:00 10.7 4 Nordeste 12 Nordeste 0.2 -- -- 89
2020-03-25 11:00:00 10.5 0 Calma 5 Sudoeste 0 -- -- 98
2020-03-25 10:00:00 10.1 0 Calma 8 Oeste 0.8 -- -- 99
2020-03-25 09:00:00 9.9 4 Sudoeste 8 Sudoeste 0.8 -- -- 98
2020-03-25 08:00:00 9.9 2 Sur 8 Sudoeste 2 -- -- 98
2020-03-25 07:00:00 10.1 0 Calma 12 Nordeste 6.8 -- -- 98
2020-03-25 06:00:00 10.9 4 Sudoeste 12 Sur 1.2 -- -- 98
2020-03-25 05:00:00 11 5 Sudoeste 12 Sudoeste 0.6 -- -- 98
2020-03-25 04:00:00 11 0 Calma 5 Sur 0.2 -- -- 97
2020-03-25 03:00:00 11 0 Calma 6 Sudoeste 0.4 -- -- 96
2020-03-25 02:00:00 11.1 0 Calma 5 Sudoeste 0 -- -- 96
2020-03-25 01:00:00 11.3 0 Calma 3 Sudeste 0 -- -- 97
2020-03-25 00:00:00 11.5 0 Calma 4 Sudoeste 0.2 -- -- 97
2020-03-24 23:00:00 11.7 2 Sudoeste 4 Sudoeste 0.2 -- -- 96
2020-03-24 22:00:00 11.8 0 Calma 9 Sur 0.6 -- -- 94
2020-03-24 21:00:00 12.1 2 Sudoeste 8 Sur 0 -- -- 91
2020-03-24 20:00:00 12.6 0 Calma 8 Sudoeste 0 -- -- 90
2020-03-24 19:00:00 13.5 3 Sudoeste 7 Sudoeste 0 -- -- 87
2020-03-24 18:00:00 13.8 0 Calma 5 Sudoeste 0 -- -- 86
2020-03-24 17:00:00 13.7 2 Sudoeste 4 Sudoeste 0 -- -- 91
2020-03-24 16:00:00 13.8 0 Calma 5 Sudoeste 0 -- -- 91
2020-03-24 15:00:00 14 3 Sudoeste 9 Nordeste 0.6 -- -- 89
2020-03-24 14:00:00 14.8 4 Sur 12 Este 0.2 -- -- 86
2020-03-24 13:00:00 15.1 5 Nordeste 15 Este 0 -- -- 71
2020-03-24 12:00:00 13.6 4 Sudoeste 18 Nordeste 0 -- -- 87
2020-03-24 11:00:00 12.6 6 Nordeste 17 Nordeste 0 -- -- 80
2020-03-24 10:00:00 11.8 6 Norte 16 Norte 0 -- -- 82
2020-03-24 09:00:00 11.1 7 Nordeste 18 Nordeste 0 -- -- 91
2020-03-24 08:00:00 10.9 8 Norte 21 Nordeste 0.8 -- -- 89
2020-03-24 07:00:00 10.8 7 Nordeste 27 Este 1.8 -- -- 89
2020-03-24 06:00:00 12.7 15 Nordeste 27 Norte 0 -- -- 68
2020-03-24 05:00:00 12.4 14 Nordeste 26 Nordeste 0 -- -- 69
2020-03-24 04:00:00 12 12 Nordeste 27 Nordeste 0 -- -- 71
2020-03-24 03:00:00 11.8 14 Nordeste 32 Nordeste 0 -- -- 72
2020-03-24 02:00:00 11.3 4 Nordeste 10 Nordeste 0 -- -- 78
2020-03-24 01:00:00 11 4 Nordeste 14 Nordeste 0 -- -- 79
2020-03-24 00:00:00 11.8 0 Calma 13 Nordeste 0 -- -- 74
2020-03-23 23:00:00 12.4 7 Nordeste 23 Norte 0 -- -- 68
2020-03-23 22:00:00 12.3 10 Nordeste 30 Nordeste 0 -- -- 65
2020-03-23 21:00:00 10.8 9 Nordeste 24 Nordeste 0 -- -- 77
2020-03-23 20:00:00 10.4 15 Nordeste 30 Nordeste 0 -- -- 80
2020-03-23 19:00:00 9.7 9 Nordeste 22 Nordeste 0.6 -- -- 90
2020-03-23 18:00:00 10.5 13 Nordeste 26 Nordeste 0 -- -- 87
2020-03-23 17:00:00 12 10 Nordeste 20 Nordeste 0 -- -- 81
2020-03-23 16:00:00 13 8 Nordeste 22 Nordeste 0 -- -- 69
2020-03-23 15:00:00 12.4 6 Nordeste 18 Este 0 -- -- 75
2020-03-23 14:00:00 12.3 9 Nordeste 21 Nordeste 0.8 -- -- 83
2020-03-23 13:00:00 12 5 Sur 18 Nordeste 2 -- -- 87
2020-03-23 12:00:00 12.5 9 Nordeste 22 Nordeste 0 -- -- 74
2020-03-23 11:00:00 12 12 Nordeste 24 Nordeste 0 -- -- 74
2020-03-23 10:00:00 10 7 Nordeste 19 Nordeste 0 -- -- 84
2020-03-23 09:00:00 9.3 4 Norte 16 Nordeste 0 -- -- 89
2020-03-23 08:00:00 7.2 6 Nordeste 9 Nordeste 0 -- -- 98
2020-03-23 07:00:00 6.8 0 Calma 6 Nordeste 0 -- -- 98
2020-03-23 06:00:00 7 3 Nordeste 8 Nordeste 0 -- -- 97
2020-03-23 05:00:00 7 2 Este 5 Nordeste 0 -- -- 98
2020-03-23 04:00:00 7.2 0 Calma 5 Nordeste 0 -- -- 98
2020-03-23 03:00:00 7.3 4 Nordeste 7 Nordeste 0 -- -- 97
2020-03-23 02:00:00 7.6 3 Sudeste 4 Este 0 -- -- 98
2020-03-23 01:00:00 7.8 0 Calma 4 Nordeste 0 -- -- 97
2020-03-23 00:00:00 8.6 2 Nordeste 4 Nordeste 0 -- -- 96
2020-03-22 23:00:00 9 3 Nordeste 6 Nordeste 0 -- -- 96
2020-03-22 22:00:00 9.3 4 Nordeste 12 Nordeste 0 -- -- 95
2020-03-22 21:00:00 9.6 4 Nordeste 8 Nordeste 0 -- -- 95
2020-03-22 20:00:00 10.1 0 Calma 6 Sur 0 -- -- 96
2020-03-22 19:00:00 10.9 3 Sudoeste 7 Sudoeste 0 -- -- 95
2020-03-22 18:00:00 11.1 2 Sudoeste 5 Oeste 0.6 -- -- 95
2020-03-22 17:00:00 11 2 Sudoeste 12 Sudoeste 0.2 -- -- 95
2020-03-22 16:00:00 11 4 Sudoeste 19 Sudoeste 0.8 -- -- 93
2020-03-22 15:00:00 12.4 8 Sudoeste 19 Sudoeste 0.2 -- -- 94
2020-03-22 14:00:00 11.5 6 Sudoeste 13 Sudoeste 0.4 -- -- 93
2020-03-22 13:00:00 11.6 7 Sudoeste 17 Sudoeste 0 -- -- 89
2020-03-22 12:00:00 11.1 12 Sudoeste 18 Sudoeste 0 -- -- 89
2020-03-22 11:00:00 10.1 3 Nordeste 5 Nordeste 0 -- -- 89
2020-03-22 10:00:00 9.3 0 Calma 4 Nordeste 0 -- -- 95
2020-03-22 09:00:00 7.4 0 Calma 3 Sudeste 0.2 -- -- 99
2020-03-22 08:00:00 7 0 Calma 3 Nordeste 0 -- -- 98
2020-03-22 07:00:00 7.2 0 Calma 15 Este 0 -- -- 97
2020-03-22 06:00:00 7.7 0 Calma 6 Nordeste 0 -- -- 98
2020-03-22 05:00:00 7.5 3 Nordeste 6 Nordeste 0 -- -- 98
2020-03-22 04:00:00 7.8 0 Calma 8 Nordeste 0 -- -- 98
2020-03-22 03:00:00 7.9 2 Nordeste 4 Sudeste 0.6 -- -- 98
2020-03-22 02:00:00 8 0 Calma 8 Nordeste 0 -- -- 98
2020-03-22 01:00:00 8.1 4 Nordeste 6 Nordeste 2.2 -- -- 96
2020-03-22 00:00:00 8.6 0 Calma 8 Este 0.2 -- -- 96
2020-03-21 23:00:00 8.5 4 Nordeste 6 Sudoeste 0 -- -- 96
2020-03-21 22:00:00 8.6 0 Calma 7 Nordeste 0 -- -- 97
2020-03-21 21:00:00 8.8 3 Nordeste 5 Nordeste 0 -- -- 97
2020-03-21 20:00:00 9.3 2 Sudoeste 10 Oeste 0 -- -- 98
2020-03-21 19:00:00 9.3 9 Sudoeste 24 Sudoeste 0 -- -- 97
2020-03-21 18:00:00 9.4 9 Sudoeste 17 Sudoeste 0.4 -- -- 97
2020-03-21 17:00:00 9.5 6 Sudoeste 32 Sudoeste 1.2 -- -- 97
2020-03-21 16:00:00 9.8 13 Sudoeste 37 Sudoeste 1.8 -- -- 93
2020-03-21 15:00:00 11.8 7 Sudoeste 14 Oeste 0.8 -- -- 93
2020-03-21 14:00:00 12.4 8 Sudoeste 32 Sudoeste 1 -- -- 93
2020-03-21 13:00:00 13.4 15 Sudoeste 29 Sudoeste 0 -- -- 82
2020-03-21 12:00:00 11.8 5 Sudoeste 24 Sudoeste 1 -- -- 93
2020-03-21 11:00:00 11.7 6 Sudoeste 19 Sudoeste 0 -- -- 76
2020-03-21 10:00:00 10.9 5 Sudoeste 22 Sudoeste 0 -- -- 79
2020-03-21 09:00:00 8.7 7 Sudoeste 19 Sur 0 -- -- 93
2020-03-21 08:00:00 7.1 5 Sudoeste 9 Sur 0.2 -- -- 94
2020-03-21 07:00:00 7.3 2 Sudoeste 11 Sudoeste 0 -- -- 94
2020-03-21 06:00:00 8 2 Sudoeste 16 Sur 0 -- -- 93
2020-03-21 05:00:00 8.7 8 Sudoeste 34 Noroeste 0 -- -- 93
2020-03-21 04:00:00 9.6 10 Sudoeste 25 Oeste 0.2 -- -- 98
2020-03-21 03:00:00 10.5 0 Calma 18 Sudoeste 10.2 -- -- 99
2020-03-21 02:00:00 11.2 9 Oeste 37 Sudoeste 17.6 -- -- 98
2020-03-21 01:00:00 12.1 9 Este 30 Nordeste 3 -- -- 99
2020-03-21 00:00:00 12 4 Sur 30 Nordeste 3.2 -- -- 99
2020-03-20 23:00:00 11.7 6 Nordeste 25 Nordeste 0 -- -- 99
2020-03-20 22:00:00 11.7 7 Este 28 Nordeste 0.2 -- -- 98
2020-03-20 21:00:00 11.7 8 Nordeste 22 Nordeste 0.6 -- -- 97
2020-03-20 20:00:00 11.8 7 Nordeste 17 Nordeste 0.4 -- -- 96
2020-03-20 19:00:00 12.5 4 Nordeste 10 Nordeste 0.2 -- -- 87
2020-03-20 18:00:00 13.7 0 Calma 13 Oeste 0 -- -- 77
2020-03-20 17:00:00 14.1 6 Sudoeste 14 Sudoeste 0 -- -- 73
2020-03-20 16:00:00 14.4 3 Oeste 10 Nordeste 0 -- -- 77
2020-03-20 15:00:00 13.4 4 Nordeste 13 Nordeste 0 -- -- 79
2020-03-20 14:00:00 13.6 6 Nordeste 23 Este 0 -- -- 76
2020-03-20 13:00:00 13.1 6 Nordeste 23 Nordeste 0 -- -- 77
2020-03-20 12:00:00 13 7 Este 19 Este 0 -- -- 77
2020-03-20 11:00:00 12.7 6 Norte 20 Nordeste 0 -- -- 78
2020-03-20 10:00:00 11.9 6 Nordeste 22 Norte 0 -- -- 84
2020-03-20 09:00:00 11.9 3 Nordeste 16 Nordeste 0 -- -- 79
2020-03-20 08:00:00 11.8 6 Nordeste 15 Nordeste 0 -- -- 79
2020-03-20 07:00:00 11.7 3 Oeste 15 Nordeste 0 -- -- 83
2020-03-20 06:00:00 11.7 2 Este 9 Este 0 -- -- 83
2020-03-20 05:00:00 11.8 2 Nordeste 14 Nordeste 0 -- -- 80
2020-03-20 04:00:00 12 4 Nordeste 20 Nordeste 0 -- -- 75
2020-03-20 03:00:00 12 6 Este 24 Nordeste 0 -- -- 71
2020-03-20 02:00:00 12 3 Nordeste 23 Norte 0 -- -- 81
2020-03-20 01:00:00 12.1 4 Este 19 Nordeste 0 -- -- 84
2020-03-20 00:00:00 12.3 4 Este 16 Nordeste 0 -- -- 89
2020-03-19 23:00:00 12.3 4 Este 18 Este 0 -- -- 88
2020-03-19 22:00:00 12.4 5 Nordeste 19 Este 0 -- -- 88
2020-03-19 21:00:00 12.7 4 Sudeste 20 Nordeste 0 -- -- 83
2020-03-19 20:00:00 13.2 5 Este 22 Este 0 -- -- 76
2020-03-19 19:00:00 13.8 4 Este 18 Este 0 -- -- 73
2020-03-19 18:00:00 14.6 5 Nordeste 18 Nordeste 0 -- -- 70
2020-03-19 17:00:00 15.4 9 Nordeste 25 Nordeste 0 -- -- 67
2020-03-19 16:00:00 14.2 6 Este 20 Este 0 -- -- 75
2020-03-19 15:00:00 13.6 5 Este 24 Este 0 -- -- 76
2020-03-19 14:00:00 13.5 7 Nordeste 32 Nordeste 0 -- -- 76
2020-03-19 13:00:00 13.9 6 Este 30 Este 0 -- -- 73
2020-03-19 12:00:00 13.9 9 Este 25 Nordeste 0 -- -- 73
2020-03-19 11:00:00 13.5 9 Este 27 Nordeste 0 -- -- 76
2020-03-19 10:00:00 13.1 9 Este 25 Nordeste 0 -- -- 79
2020-03-19 09:00:00 12.6 6 Este 26 Este 0 -- -- 81
2020-03-19 08:00:00 12.4 5 Este 21 Nordeste 0 -- -- 81
2020-03-19 07:00:00 12.3 5 Nordeste 23 Nordeste 0 -- -- 83
2020-03-19 06:00:00 12.4 4 Nordeste 15 Este 0 -- -- 83
2020-03-19 05:00:00 12.6 5 Nordeste 19 Nordeste 0 -- -- 83
2020-03-19 04:00:00 12.7 3 Norte 18 Nordeste 0 -- -- 83
2020-03-19 03:00:00 12.5 4 Este 16 Nordeste 0 -- -- 84
2020-03-19 02:00:00 12.6 5 Este 22 Nordeste 0 -- -- 85
2020-03-19 01:00:00 12.8 6 Sudeste 24 Este 0 -- -- 83
2020-03-19 00:00:00 12.9 6 Nordeste 24 Este 0 -- -- 84
2020-03-18 23:00:00 13.2 5 Nordeste 24 Nordeste 0 -- -- 81
2020-03-18 22:00:00 13.3 5 Este 22 Nordeste 0 -- -- 79
2020-03-18 21:00:00 13.6 4 Sudoeste 20 Nordeste 0 -- -- 73
2020-03-18 20:00:00 14 4 Este 21 Nordeste 0 -- -- 71
2020-03-18 19:00:00 14.7 3 Este 22 Este 0 -- -- 69
2020-03-18 18:00:00 15.3 5 Nordeste 23 Nordeste 0 -- -- 68
2020-03-18 17:00:00 16.1 8 Este 26 Este 0 -- -- 67
2020-03-18 16:00:00 16.4 8 Este 27 Nordeste 0 -- -- 68
2020-03-18 15:00:00 16.7 12 Este 29 Nordeste 0 -- -- 67
2020-03-18 14:00:00 15 9 Este 34 Este 0 -- -- 74
2020-03-18 13:00:00 14.8 11 Este 36 Nordeste 0 -- -- 76
2020-03-18 12:00:00 14.1 10 Nordeste 36 Este 0 -- -- 77
2020-03-18 11:00:00 13.5 10 Nordeste 33 Nordeste 0 -- -- 80
2020-03-18 10:00:00 13.4 7 Este 30 Este 0 -- -- 80
2020-03-18 09:00:00 13.5 9 Este 27 Nordeste 0 -- -- 79
2020-03-18 08:00:00 13.6 6 Noroeste 32 Nordeste 0 -- -- 81
2020-03-18 07:00:00 13.7 6 Nordeste 30 Este 0 -- -- 80
2020-03-18 06:00:00 13.9 8 Nordeste 25 Este 0 -- -- 77
2020-03-18 05:00:00 14 6 Este 35 Nordeste 0 -- -- 76
2020-03-18 04:00:00 14.7 7 Este 48 Este 0 -- -- 73
2020-03-18 03:00:00 14.8 18 Nordeste 46 Este 0 -- -- 73
2020-03-18 02:00:00 14.1 12 Este 36 Este 0 -- -- 79
2020-03-18 01:00:00 13.9 11 Sur 44 Este 0 -- -- 82
2020-03-18 00:00:00 13.7 8 Sudeste 28 Sudeste 0 -- -- 82
2020-03-17 23:00:00 13.5 8 Sudeste 29 Este 0 -- -- 80
2020-03-17 22:00:00 13.2 8 Nordeste 32 Este 0 -- -- 78
2020-03-17 21:00:00 13 13 Nordeste 31 Nordeste 0 -- -- 78
2020-03-17 20:00:00 12.2 12 Nordeste 26 Nordeste 0 -- -- 77
2020-03-17 19:00:00 11.6 7 Nordeste 20 Nordeste 0 -- -- 79
2020-03-17 18:00:00 11.7 4 Sudeste 33 Nordeste 0 -- -- 74
2020-03-17 17:00:00 12.9 8 Nordeste 32 Nordeste 0 -- -- 71
2020-03-17 16:00:00 13.1 11 Este 35 Nordeste 0 -- -- 63
2020-03-17 15:00:00 13.4 12 Nordeste 36 Nordeste 0 -- -- 57
2020-03-17 14:00:00 12.2 9 Este 36 Este 0 -- -- 71
2020-03-17 13:00:00 12.9 8 Nordeste 32 Nordeste 0 -- -- 65
2020-03-17 12:00:00 11.8 7 Nordeste 30 Nordeste 0 -- -- 70
2020-03-17 11:00:00 10.1 6 Nordeste 14 Norte 0 -- -- 79
2020-03-17 10:00:00 7.3 6 Nordeste 10 Nordeste 0.6 -- -- 94
2020-03-17 09:00:00 6.6 2 Sudoeste 8 Norte 1.8 -- -- 95
2020-03-17 08:00:00 6.4 3 Nordeste 10 Oeste 4.6 -- -- 94
2020-03-17 07:00:00 7.2 9 Sudoeste 27 Sudoeste 0.4 -- -- 91
2020-03-17 06:00:00 8.9 3 Nordeste 5 Nordeste 0 -- -- 67
2020-03-17 05:00:00 9 0 Calma 4 Norte 0 -- -- 61
2020-03-17 04:00:00 9.1 0 Calma 5 Sudoeste 0 -- -- 60
2020-03-17 03:00:00 9.1 4 Nordeste 7 Este 0 -- -- 58
2020-03-17 02:00:00 9.1 0 Calma 10 Sudeste 0 -- -- 58
2020-03-17 01:00:00 8.8 0 Calma 10 Noroeste 0 -- -- 58
2020-03-17 00:00:00 9.9 0 Calma 9 Sudoeste 0 -- -- 56
2020-03-16 23:00:00 10.4 0 Calma 9 Oeste 0 -- -- 51
2020-03-16 22:00:00 11.4 3 Sudoeste 14 Sudoeste 0 -- -- 49
2020-03-16 21:00:00 11.6 3 Sudoeste 14 Oeste 0 -- -- 47
2020-03-16 20:00:00 12.2 9 Sudoeste 19 Sudoeste 0 -- -- 43
2020-03-16 19:00:00 14.1 5 Sudoeste 27 Sudoeste 0 -- -- 40
2020-03-16 18:00:00 16.2 9 Sudoeste 33 Sudoeste 0 -- -- 35
2020-03-16 17:00:00 18.1 13 Sudoeste 31 Sudoeste 0 -- -- 31
2020-03-16 16:00:00 18 10 Sudoeste 35 Sudoeste 0 -- -- 31
2020-03-16 15:00:00 17.8 7 Sudoeste 24 Noroeste 0 -- -- 31
2020-03-16 14:00:00 16.4 8 Oeste 32 Oeste 0 -- -- 30
2020-03-16 13:00:00 15.7 12 Noroeste 38 Oeste 0 -- -- 24
2020-03-16 12:00:00 15.3 16 Sudoeste 44 Oeste 0 -- -- 28
2020-03-16 11:00:00 14.2 16 Sudoeste 31 Sudoeste 0 -- -- 30
2020-03-16 10:00:00 11.5 12 Sudoeste 34 Sudoeste 0 -- -- 33
2020-03-16 09:00:00 12.6 8 Sudoeste 23 Sudoeste 0 -- -- 36
2020-03-16 08:00:00 13 5 Oeste 17 Noroeste 0 -- -- 63
2020-03-16 07:00:00 12.8 6 Sudoeste 23 Sudoeste 0 -- -- 77
2020-03-16 06:00:00 12 5 Nordeste 19 Sudoeste 0 -- -- 88
2020-03-16 05:00:00 12.1 9 Sudoeste 16 Sudoeste 0 -- -- 85
2020-03-16 04:00:00 11.7 0 Calma 9 Sur 0 -- -- 89
2020-03-16 03:00:00 11.8 3 Sur 9 Sur 0 -- -- 89
2020-03-16 02:00:00 10.8 0 Calma 6 Oeste 0 -- -- 94
2020-03-16 01:00:00 11 4 Sudoeste 8 Sudoeste 0 -- -- 92
2020-03-16 00:00:00 11.3 3 Sudoeste 5 Oeste 0 -- -- 94
2020-03-15 23:00:00 11.4 0 Calma 7 Nordeste 0 -- -- 91
2020-03-15 22:00:00 12.8 0 Calma 5 Sudoeste 0 -- -- 88
2020-03-15 21:00:00 12.7 3 Sudoeste 8 Sudoeste 0 -- -- 89
2020-03-15 20:00:00 12.9 3 Nordeste 8 Nordeste 0 -- -- 87
2020-03-15 19:00:00 13.8 3 Este 6 Nordeste 0 -- -- 82
2020-03-15 18:00:00 14.5 2 Oeste 10 Sudoeste 0 -- -- 80
2020-03-15 17:00:00 14.2 0 Calma 11 Oeste 0 -- -- 81
2020-03-15 16:00:00 14.3 4 Norte 15 Sudoeste 0 -- -- 80
2020-03-15 15:00:00 15.7 5 Sur 16 Sudeste 0 -- -- 77
2020-03-15 14:00:00 15.7 5 Sudeste 19 Sudoeste 0 -- -- 77
2020-03-15 13:00:00 16 4 Nordeste 14 Nordeste 0 -- -- 76
2020-03-15 12:00:00 15.2 5 Nordeste 17 Nordeste 0 -- -- 80
2020-03-15 11:00:00 14.8 4 Este 17 Nordeste 0 -- -- 81
2020-03-15 10:00:00 12.9 6 Nordeste 13 Nordeste 0 -- -- 90
2020-03-15 09:00:00 12 2 Nordeste 5 Nordeste 0 -- -- 92
2020-03-15 08:00:00 11.2 0 Calma 3 Sudeste 0 -- -- 92
2020-03-15 07:00:00 11.3 2 Este 14 Nordeste 0 -- -- 91
2020-03-15 06:00:00 11.3 6 Nordeste 16 Norte 0 -- -- 92
2020-03-15 05:00:00 10.8 4 Nordeste 14 Sudeste 0 -- -- 93
2020-03-15 04:00:00 11.1 6 Nordeste 12 Este 0 -- -- 90
2020-03-15 03:00:00 11.3 2 Nordeste 7 Nordeste 0 -- -- 96
2020-03-15 02:00:00 10.7 0 Calma 3 Nordeste 0 -- -- 96
2020-03-15 01:00:00 10.6 0 Calma 2 Oeste 0 -- -- 93
2020-03-15 00:00:00 11 0 Calma 6 Nordeste 0 -- -- 91
2020-03-14 23:00:00 11.3 3 Nordeste 4 Nordeste 0 -- -- 92
2020-03-14 22:00:00 11.4 0 Calma 4 Este 0 -- -- 92
2020-03-14 21:00:00 11.6 0 Calma 4 Nordeste 0 -- -- 90
2020-03-14 20:00:00 12.4 3 Nordeste 5 Norte 0 -- -- 87
2020-03-14 19:00:00 13.8 4 Nordeste 8 Este 0 -- -- 82
2020-03-14 18:00:00 15.2 4 Nordeste 10 Nordeste 0 -- -- 77
2020-03-14 17:00:00 16.6 3 Norte 11 Nordeste 0 -- -- 74
2020-03-14 16:00:00 16 4 Nordeste 17 Sudoeste 0 -- -- 76
2020-03-14 15:00:00 16.6 4 Sudoeste 16 Sur 0 -- -- 74
2020-03-14 14:00:00 16.9 3 Oeste 15 Sudeste 0 -- -- 71
2020-03-14 13:00:00 16.1 6 Sur 17 Sudoeste 0 -- -- 74
2020-03-14 12:00:00 15.8 4 Norte 14 Nordeste 0 -- -- 74
2020-03-14 11:00:00 16.9 4 Sudeste 13 Sudoeste 0 -- -- 69
2020-03-14 10:00:00 15 5 Sudoeste 8 Sudoeste 0 -- -- 75
2020-03-14 09:00:00 11.6 0 Calma 2 Este 0 -- -- 88
2020-03-14 08:00:00 10.2 0 Calma 6 Nordeste 0 -- -- 92
2020-03-14 07:00:00 10.2 3 Nordeste 6 Nordeste 0 -- -- 94
2020-03-14 06:00:00 10.4 0 Calma 2 Este 0 -- -- 93
2020-03-14 05:00:00 10.4 0 Calma 2 Nordeste 0 -- -- 91
2020-03-14 04:00:00 11 3 Nordeste 4 Noroeste 0 -- -- 85
2020-03-14 03:00:00 11.6 2 Nordeste 4 Nordeste 0 -- -- 75
2020-03-14 02:00:00 12.7 5 Nordeste 8 Nordeste 0 -- -- 69
2020-03-14 01:00:00 13 2 Norte 10 Nordeste 0 -- -- 70
2020-03-14 00:00:00 13.1 0 Calma 3 Sudoeste 0 -- -- 77
2020-03-13 23:00:00 13.8 0 Calma 9 Este 0 -- -- 69
2020-03-13 22:00:00 14.5 4 Nordeste 6 Nordeste 0 -- -- 69
2020-03-13 21:00:00 15.2 0 Calma 4 Sudoeste 0 -- -- 67
2020-03-13 20:00:00 16.5 0 Calma 6 Sudoeste 0 -- -- 64
2020-03-13 19:00:00 17.7 2 Nordeste 14 Este 0 -- -- 60
2020-03-13 18:00:00 18.9 10 Nordeste 16 Nordeste 0 -- -- 59
2020-03-13 17:00:00 20.6 10 Nordeste 17 Nordeste 0 -- -- 50
2020-03-13 16:00:00 22.5 11 Nordeste 18 Nordeste 0 -- -- 33
2020-03-13 15:00:00 22.5 8 Nordeste 15 Nordeste 0 -- -- 34
2020-03-13 14:00:00 22.9 6 Nordeste 15 Nordeste 0 -- -- 35
2020-03-13 13:00:00 23.6 8 Sudoeste 13 Sur 0 -- -- 43
2020-03-13 12:00:00 22.7 5 Sudoeste 10 Sudoeste 0 -- -- 48
2020-03-13 11:00:00 21.5 3 Sudoeste 5 Sudoeste 0 -- -- 43
2020-03-13 10:00:00 19.7 0 Calma 4 Sur 0 -- -- 46
2020-03-13 09:00:00 16.4 0 Calma 2 Sudeste 0 -- -- 45
2020-03-13 08:00:00 14.8 0 Calma 3 Nordeste 0 -- -- 54
2020-03-13 07:00:00 14.7 2 Nordeste 5 Nordeste 0 -- -- 58
2020-03-13 06:00:00 14.9 2 Nordeste 8 Este 0 -- -- 57
2020-03-13 05:00:00 14.6 3 Este 6 Nordeste 0 -- -- 54
2020-03-13 04:00:00 14.8 0 Calma 3 Sudeste 0 -- -- 59
2020-03-13 03:00:00 14.8 0 Calma 8 Nordeste 0 -- -- 57
2020-03-13 02:00:00 15.4 3 Nordeste 10 Nordeste 0 -- -- 54
2020-03-13 01:00:00 15.8 4 Nordeste 6 Nordeste 0 -- -- 52
2020-03-13 00:00:00 16.5 0 Calma 12 Nordeste 0 -- -- 50
2020-03-12 23:00:00 16.7 3 Nordeste 8 Nordeste 0 -- -- 50
2020-03-12 22:00:00 17.7 0 Calma 5 Sudoeste 0 -- -- 48
2020-03-12 21:00:00 18.1 0 Calma 3 Sudeste 0 -- -- 44
2020-03-12 20:00:00 18.7 0 Calma 5 Este 0 -- -- 46
2020-03-12 19:00:00 21.4 5 Nordeste 10 Nordeste 0 -- -- 39
2020-03-12 18:00:00 24.3 7 Sudoeste 14 Sudoeste 0 -- -- 34
2020-03-12 17:00:00 26.4 7 Sudoeste 16 Sudoeste 0 -- -- 30
2020-03-12 16:00:00 25.5 7 Sudoeste 17 Sur 0 -- -- 33
2020-03-12 15:00:00 25 8 Sudoeste 17 Sudoeste 0 -- -- 31
2020-03-12 14:00:00 24.1 8 Sur 19 Sudoeste 0 -- -- 32
2020-03-12 13:00:00 23 4 Noroeste 15 Nordeste 0 -- -- 34
2020-03-12 12:00:00 23.1 3 Nordeste 10 Nordeste 0 -- -- 39
2020-03-12 11:00:00 22.4 3 Sudoeste 7 Norte 0 -- -- 37
2020-03-12 10:00:00 20.2 0 Calma 4 Sudeste 0 -- -- 41
2020-03-12 09:00:00 16.8 0 Calma 4 Nordeste 0 -- -- 50
2020-03-12 08:00:00 15.9 2 Sudeste 3 Sudeste 0 -- -- 50
2020-03-12 07:00:00 15.5 0 Calma 3 Sudeste 0 -- -- 49
2020-03-12 06:00:00 15.6 0 Calma 5 Nordeste 0 -- -- 49
2020-03-12 05:00:00 16.1 2 Este 4 Este 0 -- -- 47
2020-03-12 04:00:00 16.1 0 Calma 7 Sudeste 0 -- -- 47
2020-03-12 03:00:00 15.2 3 Nordeste 7 Nordeste 0 -- -- 48
2020-03-12 02:00:00 14.5 2 Sur 9 Nordeste 0 -- -- 53
2020-03-12 01:00:00 14.5 0 Calma 4 Nordeste 0 -- -- 58
2020-03-12 00:00:00 15 0 Calma 4 Este 0 -- -- 57
2020-03-11 23:00:00 15.6 0 Calma 6 Este 0 -- -- 54
2020-03-11 22:00:00 15.9 0 Calma 4 Este 0 -- -- 56
2020-03-11 21:00:00 16.4 0 Calma 5 Sudoeste 0 -- -- 58
2020-03-11 20:00:00 18.5 0 Calma 9 Este 0 -- -- 50
2020-03-11 19:00:00 22 4 Nordeste 9 Este 0 -- -- 42
2020-03-11 18:00:00 24.5 5 Nordeste 14 Sudoeste 0 -- -- 32
2020-03-11 17:00:00 26.9 8 Sudoeste 18 Sudoeste 0 -- -- 31
2020-03-11 16:00:00 24.9 8 Nordeste 18 Norte 0 -- -- 32
2020-03-11 15:00:00 24.2 9 Nordeste 22 Nordeste 0 -- -- 33
2020-03-11 14:00:00 24.1 11 Nordeste 18 Nordeste 0 -- -- 35
2020-03-11 13:00:00 24.5 4 Nordeste 14 Nordeste 0 -- -- 37
2020-03-11 12:00:00 22.5 3 Sur 8 Sudoeste 0 -- -- 39
2020-03-11 11:00:00 19.6 3 Sudoeste 7 Sudoeste 0 -- -- 44
2020-03-11 10:00:00 17.4 0 Calma 6 Sudoeste 0 -- -- 46
2020-03-11 09:00:00 13.4 0 Calma 4 Este 0 -- -- 55
2020-03-11 08:00:00 13 0 Calma 4 Nordeste 0 -- -- 55
2020-03-11 07:00:00 13.2 0 Calma 9 Nordeste 0 -- -- 58
2020-03-11 06:00:00 11.7 0 Calma 4 Nordeste 0 -- -- 55
2020-03-11 05:00:00 11.3 0 Calma 6 Nordeste 0 -- -- 56
2020-03-11 04:00:00 11.5 4 Nordeste 7 Norte 0 -- -- 54
2020-03-11 03:00:00 11.3 0 Calma 4 Sudeste 0 -- -- 58
2020-03-11 02:00:00 11.9 0 Calma 10 Este 0 -- -- 57
2020-03-11 01:00:00 11.9 4 Nordeste 6 Nordeste 0 -- -- 56
2020-03-11 00:00:00 12 0 Calma 6 Nordeste 0 -- -- 61
2020-03-10 23:00:00 12.4 0 Calma 5 Nordeste 0 -- -- 58
2020-03-10 22:00:00 12.8 0 Calma 3 Este 0 -- -- 58
2020-03-10 21:00:00 13.2 0 Calma 4 Sudoeste 0 -- -- 55
2020-03-10 20:00:00 14.3 0 Calma 4 Este 0 -- -- 52
2020-03-10 19:00:00 16.1 3 Nordeste 10 Nordeste 0 -- -- 47
2020-03-10 18:00:00 17.2 4 Nordeste 13 Este 0 -- -- 45
2020-03-10 17:00:00 19.6 4 Sudoeste 18 Sudoeste 0 -- -- 37
2020-03-10 16:00:00 19.8 6 Sur 27 Sudeste 0 -- -- 41
2020-03-10 15:00:00 19.6 9 Nordeste 31 Este 0 -- -- 48
2020-03-10 14:00:00 22 9 Nordeste 28 Nordeste 0 -- -- 36
2020-03-10 13:00:00 22 8 Nordeste 22 Este 0 -- -- 32
2020-03-10 12:00:00 21.7 6 Nordeste 23 Este 0 -- -- 35
2020-03-10 11:00:00 21.6 7 Nordeste 24 Norte 0 -- -- 32
2020-03-10 10:00:00 19.6 6 Nordeste 15 Norte 0 -- -- 35
2020-03-10 09:00:00 15.6 4 Nordeste 10 Norte 0 -- -- 47
2020-03-10 08:00:00 15.4 3 Nordeste 24 Nordeste 0 -- -- 43
2020-03-10 07:00:00 16.9 11 Nordeste 22 Nordeste 0 -- -- 37
2020-03-10 06:00:00 16.9 9 Nordeste 23 Nordeste 0 -- -- 36
2020-03-10 05:00:00 16.6 10 Nordeste 22 Nordeste 0 -- -- 35
2020-03-10 04:00:00 16.9 7 Norte 20 Nordeste 0 -- -- 32
2020-03-10 03:00:00 15.9 6 Este 23 Nordeste 0 -- -- 36
2020-03-10 02:00:00 15.4 6 Nordeste 11 Nordeste 0 -- -- 41
2020-03-10 01:00:00 15.5 5 Nordeste 10 Nordeste 0 -- -- 40
2020-03-10 00:00:00 16.7 4 Nordeste 17 Nordeste 0 -- -- 38
2020-03-09 23:00:00 16.5 6 Nordeste 12 Nordeste 0 -- -- 36
2020-03-09 22:00:00 17 6 Norte 17 Nordeste 0 -- -- 33
2020-03-09 21:00:00 17.6 12 Nordeste 23 Nordeste 0 -- -- 31
2020-03-09 20:00:00 18.2 8 Sur 12 Sudeste 0 -- -- 34
2020-03-09 19:00:00 20.1 0 Calma 8 Nordeste 0 -- -- 31
2020-03-09 18:00:00 21.6 2 Este 15 Sudoeste 0 -- -- 26
2020-03-09 17:00:00 22.1 7 Nordeste 13 Sudoeste 0 -- -- 24
2020-03-09 16:00:00 24.6 5 Sudoeste 15 Sur 0 -- -- 25
2020-03-09 15:00:00 24.4 7 Sudoeste 15 Oeste 0 -- -- 26
2020-03-09 14:00:00 24.1 10 Sudoeste 18 Sudoeste 0 -- -- 29
2020-03-09 13:00:00 22.7 5 Sur 18 Sur 0 -- -- 30
2020-03-09 12:00:00 21.9 5 Sur 14 Sudoeste 0 -- -- 34
2020-03-09 11:00:00 21.4 4 Sur 14 Nordeste 0 -- -- 31
2020-03-09 10:00:00 18.4 2 Sur 13 Sur 0 -- -- 37
2020-03-09 09:00:00 16.1 3 Oeste 19 Norte 0 -- -- 30
2020-03-09 08:00:00 13.8 4 Nordeste 12 Nordeste 0 -- -- 32
2020-03-09 07:00:00 13.2 3 Nordeste 12 Nordeste 0 -- -- 37
2020-03-09 06:00:00 15.1 8 Nordeste 21 Nordeste 0 -- -- 32
2020-03-09 05:00:00 16.8 3 Sudoeste 17 Norte 0 -- -- 28
2020-03-09 04:00:00 16.7 10 Norte 23 Norte 0 -- -- 22
2020-03-09 03:00:00 15.3 4 Nordeste 13 Nordeste 0 -- -- 33
2020-03-09 02:00:00 14.6 5 Nordeste 13 Nordeste 0 -- -- 29
2020-03-09 01:00:00 14.9 2 Nordeste 8 Nordeste 0 -- -- 35
2020-03-09 00:00:00 15.4 3 Este 12 Este 0 -- -- 32
2020-03-08 23:00:00 15.9 2 Nordeste 9 Norte 0 -- -- 36
2020-03-08 22:00:00 16.1 5 Nordeste 19 Norte 0 -- -- 28
2020-03-08 21:00:00 15.2 6 Este 11 Sudeste 0 -- -- 48
2020-03-08 20:00:00 15.1 0 Calma 4 Nordeste 0 -- -- 66
2020-03-08 19:00:00 18.2 0 Calma 12 Sudoeste 0 -- -- 57
2020-03-08 18:00:00 19.8 6 Sudoeste 14 Sudoeste 0 -- -- 52
2020-03-08 17:00:00 20.9 9 Sudoeste 17 Sudoeste 0 -- -- 50
2020-03-08 16:00:00 20.9 8 Sudoeste 19 Sudoeste 0 -- -- 45
2020-03-08 15:00:00 20.3 6 Sur 17 Sudoeste 0 -- -- 48
2020-03-08 14:00:00 19.8 8 Sudoeste 17 Sudoeste 0 -- -- 48
2020-03-08 13:00:00 19.3 6 Sudoeste 17 Sudoeste 0 -- -- 48
2020-03-08 12:00:00 18.2 5 Nordeste 14 Este 0 -- -- 43
2020-03-08 11:00:00 16.3 4 Sudoeste 8 Sudoeste 0 -- -- 40
2020-03-08 10:00:00 13.3 3 Sudoeste 6 Sudoeste 0 -- -- 57
2020-03-08 09:00:00 8.7 0 Calma 6 Este 0 -- -- 67
2020-03-08 08:00:00 7.7 3 Este 6 Nordeste 0 -- -- 70
2020-03-08 07:00:00 7.9 0 Calma 4 Nordeste 0 -- -- 72
2020-03-08 06:00:00 8.3 0 Calma 3 Nordeste 0 -- -- 62
2020-03-08 05:00:00 8.8 0 Calma 4 Norte 0 -- -- 59
2020-03-08 04:00:00 9.4 2 Este 6 Este 0 -- -- 56
2020-03-08 03:00:00 10.3 3 Este 9 Nordeste 0 -- -- 54
2020-03-08 02:00:00 10.5 4 Nordeste 8 Este 0 -- -- 51
2020-03-08 01:00:00 11.2 4 Norte 12 Norte 0 -- -- 46
2020-03-08 00:00:00 12.6 4 Nordeste 15 Norte 0 -- -- 43
2020-03-07 23:00:00 11.3 3 Nordeste 8 Nordeste 0 -- -- 50
2020-03-07 22:00:00 11.6 3 Nordeste 15 Norte 0 -- -- 54
2020-03-07 21:00:00 12.1 4 Nordeste 9 Nordeste 0 -- -- 55
2020-03-07 20:00:00 12.4 0 Calma 6 Sudoeste 0 -- -- 65
2020-03-07 19:00:00 14.8 3 Sudoeste 10 Sudoeste 0 -- -- 63
2020-03-07 18:00:00 14.7 4 Sudoeste 9 Sudoeste 0 -- -- 61
2020-03-07 17:00:00 15.4 6 Sudoeste 10 Sudoeste 0 -- -- 52
2020-03-07 16:00:00 16.2 5 Sudoeste 17 Sudoeste 0 -- -- 49
2020-03-07 15:00:00 17.2 6 Sudoeste 22 Sudoeste 0 -- -- 46
2020-03-07 14:00:00 19.5 11 Sudoeste 27 Nordeste 0 -- -- 39
2020-03-07 13:00:00 17.9 11 Nordeste 26 Este 0 -- -- 26
2020-03-07 12:00:00 16.7 12 Nordeste 30 Nordeste 0 -- -- 31
2020-03-07 11:00:00 15.6 15 Nordeste 33 Nordeste 0 -- -- 35
2020-03-07 10:00:00 14.3 13 Nordeste 27 Nordeste 0 -- -- 39
2020-03-07 09:00:00 12 12 Nordeste 23 Nordeste 0 -- -- 44
2020-03-07 08:00:00 11.1 13 Nordeste 24 Nordeste 0 -- -- 45
2020-03-07 07:00:00 11.3 11 Nordeste 27 Norte 0 -- -- 45
2020-03-07 06:00:00 11.2 15 Norte 32 Nordeste 0 -- -- 45
2020-03-07 05:00:00 11.3 16 Nordeste 28 Nordeste 0 -- -- 46
2020-03-07 04:00:00 11.3 14 Nordeste 19 Nordeste 0 -- -- 50
2020-03-07 03:00:00 10.9 7 Nordeste 12 Nordeste 0 -- -- 52
2020-03-07 02:00:00 10.1 7 Nordeste 9 Nordeste 0 -- -- 57
2020-03-07 01:00:00 10.8 6 Nordeste 12 Nordeste 0 -- -- 54
2020-03-07 00:00:00 12.7 3 Este 31 Nordeste 0 -- -- 47
2020-03-06 23:00:00 13.2 9 Este 29 Sudoeste 0 -- -- 47
2020-03-06 22:00:00 13.2 12 Sudoeste 33 Sudoeste 0 -- -- 52
2020-03-06 21:00:00 13.8 12 Sudoeste 35 Sudoeste 0 -- -- 49
2020-03-06 20:00:00 14 3 Este 16 Sudoeste 0 -- -- 48
2020-03-06 19:00:00 16.2 6 Sudoeste 24 Sudoeste 0 -- -- 43
2020-03-06 18:00:00 17.8 6 Oeste 30 Sudoeste 0 -- -- 40
2020-03-06 17:00:00 18.7 11 Sudoeste 38 Nordeste 0 -- -- 38
2020-03-06 16:00:00 19.8 11 Sudoeste 28 Sudoeste 0 -- -- 36
2020-03-06 15:00:00 19.2 14 Sudoeste 37 Sudoeste 0 -- -- 40
2020-03-06 14:00:00 18.9 21 Sudoeste 38 Sudoeste 0 -- -- 38
2020-03-06 13:00:00 16.8 17 Sudoeste 52 Sudoeste 0 -- -- 45
2020-03-06 12:00:00 15.9 14 Sudoeste 44 Sur 0 -- -- 48
2020-03-06 11:00:00 15.2 15 Sudoeste 35 Sudoeste 0 -- -- 53
2020-03-06 10:00:00 13.1 9 Sur 41 Nordeste 0 -- -- 57
2020-03-06 09:00:00 10.4 9 Sur 31 Este 0 -- -- 62
2020-03-06 08:00:00 10.5 11 Nordeste 36 Nordeste 0 -- -- 58
2020-03-06 07:00:00 10.5 14 Nordeste 45 Nordeste 0 -- -- 56
2020-03-06 06:00:00 10.7 20 Nordeste 49 Norte 0 -- -- 53
2020-03-06 05:00:00 10.6 18 Nordeste 41 Nordeste 0 -- -- 57
2020-03-06 04:00:00 10.6 9 Norte 22 Nordeste 0 -- -- 58
2020-03-06 03:00:00 10.7 6 Norte 30 Sudoeste 0 -- -- 59
2020-03-06 02:00:00 11.3 12 Sudoeste 32 Sudoeste 0 -- -- 61
2020-03-06 01:00:00 11.6 3 Nordeste 26 Sudoeste 0 -- -- 61
2020-03-06 00:00:00 12.6 5 Sudoeste 27 Noroeste 0 -- -- 57
2020-03-05 23:00:00 12.8 8 Sudoeste 18 Sudoeste 0 -- -- 59
2020-03-05 22:00:00 13.4 8 Sudoeste 28 Sudoeste 0 -- -- 59
2020-03-05 21:00:00 13.8 9 Sudoeste 33 Sudoeste 0 -- -- 55
2020-03-05 20:00:00 14.3 8 Sudoeste 43 Noroeste 0 -- -- 55
2020-03-05 19:00:00 16.6 9 Sudoeste 35 Sudoeste 0 -- -- 50
2020-03-05 18:00:00 16.7 18 Sudoeste 45 Sudoeste 0 -- -- 56
2020-03-05 17:00:00 17.3 22 Sudoeste 42 Oeste 0 -- -- 62
2020-03-05 16:00:00 18.2 23 Sudoeste 44 Sudoeste 0 -- -- 60
2020-03-05 15:00:00 20.2 14 Sudoeste 37 Sudoeste 0 -- -- 53
2020-03-05 14:00:00 22.6 9 Sudoeste 31 Oeste 0 -- -- 46
2020-03-05 13:00:00 22.3 18 Sudoeste 30 Sur 0 -- -- 43
2020-03-05 12:00:00 20 13 Sudoeste 31 Sudoeste 0 -- -- 48
2020-03-05 11:00:00 19 17 Sudoeste 31 Sudoeste 0 -- -- 49
2020-03-05 10:00:00 16.6 12 Sudoeste 22 Sur 0 -- -- 53
2020-03-05 09:00:00 13 4 Este 9 Nordeste 0 -- -- 65
2020-03-05 08:00:00 11.9 4 Nordeste 11 Nordeste 0 -- -- 66
2020-03-05 07:00:00 12.8 5 Nordeste 16 Nordeste 0 -- -- 64
2020-03-05 06:00:00 13.9 8 Nordeste 20 Nordeste 0 -- -- 61
2020-03-05 05:00:00 14 9 Este 17 Este 0 -- -- 60
2020-03-05 04:00:00 14.1 8 Este 15 Este 0 -- -- 59
2020-03-05 03:00:00 14.6 9 Nordeste 20 Nordeste 0 -- -- 58
2020-03-05 02:00:00 13.3 8 Nordeste 13 Este 0 -- -- 66
2020-03-05 01:00:00 13.5 6 Nordeste 10 Este 0 -- -- 65
2020-03-05 00:00:00 13.4 5 Nordeste 8 Nordeste 0 -- -- 66
2020-03-04 23:00:00 14.7 3 Nordeste 17 Nordeste 0 -- -- 61
2020-03-04 22:00:00 14.1 5 Nordeste 8 Nordeste 0 -- -- 63
2020-03-04 21:00:00 15.3 0 Calma 10 Norte 0 -- -- 59
2020-03-04 20:00:00 17.2 8 Este 17 Sudoeste 0 -- -- 56
2020-03-04 19:00:00 20.8 11 Sudoeste 23 Sudoeste 0 -- -- 40
2020-03-04 18:00:00 22.9 12 Sudoeste 30 Sudoeste 0 -- -- 36
2020-03-04 17:00:00 21.5 4 Sudoeste 19 Nordeste 0 -- -- 47
2020-03-04 16:00:00 21.2 7 Nordeste 19 Nordeste 0 -- -- 47
2020-03-04 15:00:00 21.6 6 Nordeste 15 Nordeste 0 -- -- 45
2020-03-04 14:00:00 22.7 6 Sur 15 Sur 0 -- -- 42
2020-03-04 13:00:00 22 5 Sur 10 Sur 0 -- -- 48
2020-03-04 12:00:00 20.6 4 Nordeste 9 Nordeste 0 -- -- 49
2020-03-04 11:00:00 18.9 2 Sudeste 17 Nordeste 0 -- -- 52
2020-03-04 10:00:00 16.2 7 Nordeste 18 Nordeste 0 -- -- 60
2020-03-04 09:00:00 12.9 5 Nordeste 9 Nordeste 0 -- -- 73
2020-03-04 08:00:00 11.6 2 Este 10 Nordeste 0 -- -- 77
2020-03-04 07:00:00 12.6 3 Nordeste 15 Nordeste 0 -- -- 74
2020-03-04 06:00:00 11.1 3 Nordeste 5 Este 0 -- -- 79
2020-03-04 05:00:00 11.5 0 Calma 5 Sur 0 -- -- 77
2020-03-04 04:00:00 11.9 0 Calma 11 Norte 0 -- -- 76
2020-03-04 03:00:00 11.8 3 Sudeste 6 Sudeste 0 -- -- 78
2020-03-04 02:00:00 12.4 3 Este 7 Sudeste 0 -- -- 76
2020-03-04 01:00:00 13.4 3 Sudeste 10 Sudeste 0 -- -- 74
2020-03-04 00:00:00 13.7 5 Este 14 Sur 0 -- -- 73
2020-03-03 23:00:00 14.5 8 Sur 14 Este 0 -- -- 68
2020-03-03 22:00:00 14.5 4 Sudeste 10 Sudeste 0 -- -- 67
2020-03-03 21:00:00 14.7 0 Calma 20 Sur 0 -- -- 67
2020-03-03 20:00:00 15.9 2 Sudoeste 22 Sudoeste 0 -- -- 61
2020-03-03 19:00:00 17.4 7 Sudoeste 26 Sudoeste 0 -- -- 56
2020-03-03 18:00:00 18.9 10 Sur 39 Sudoeste 0 -- -- 50
2020-03-03 17:00:00 20.4 21 Sudoeste 44 Sudoeste 0 -- -- 47
2020-03-03 16:00:00 20.6 26 Sudoeste 40 Sudoeste 0 -- -- 44
2020-03-03 15:00:00 20.9 25 Sudoeste 45 Sudoeste 0 -- -- 40
2020-03-03 14:00:00 20.6 21 Sudoeste 34 Sudoeste 0 -- -- 38
2020-03-03 13:00:00 19.8 17 Sudoeste 35 Sudoeste 0 -- -- 35
2020-03-03 12:00:00 17.9 19 Sudoeste 35 Sudoeste 0 -- -- 38
2020-03-03 11:00:00 16 15 Sudoeste 27 Sudoeste 0 -- -- 47
2020-03-03 10:00:00 13.5 14 Sudoeste 21 Sudoeste 0 -- -- 48
2020-03-03 09:00:00 10.5 0 Calma 3 Sudeste 0 -- -- 50
2020-03-03 08:00:00 9.8 0 Calma 5 Nordeste 0 -- -- 45
2020-03-03 07:00:00 10.5 3 Este 8 Este 0 -- -- 41
2020-03-03 06:00:00 10.9 3 Este 12 Sur 0 -- -- 44
2020-03-03 05:00:00 11.3 4 Sudeste 12 Nordeste 0 -- -- 43
2020-03-03 04:00:00 10.5 2 Este 12 Sudoeste 0 -- -- 57
2020-03-03 03:00:00 10.6 3 Sudoeste 15 Sudoeste 0 -- -- 63
2020-03-03 02:00:00 11.2 6 Sudoeste 17 Sur 0 -- -- 65
2020-03-03 01:00:00 12.1 9 Sudoeste 25 Sudoeste 0 -- -- 64
2020-03-03 00:00:00 12.7 12 Sudoeste 23 Sudoeste 0 -- -- 63
2020-03-02 23:00:00 12.9 10 Sudoeste 21 Sudoeste 0 -- -- 61
2020-03-02 22:00:00 13.5 13 Sudoeste 34 Sudoeste 0 -- -- 57
2020-03-02 21:00:00 14.1 11 Sudoeste 31 Sudoeste 0 -- -- 55
2020-03-02 20:00:00 14.7 10 Sudoeste 35 Oeste 0 -- -- 55
2020-03-02 19:00:00 16.8 14 Sudoeste 35 Sudoeste 0 -- -- 49
2020-03-02 18:00:00 19.6 13 Sudoeste 35 Noroeste 0 -- -- 48
2020-03-02 17:00:00 20.7 13 Sudoeste 45 Oeste 0 -- -- 46
2020-03-02 16:00:00 20.3 19 Sudoeste 45 Sudoeste 0 -- -- 46
2020-03-02 15:00:00 21.7 17 Sudoeste 60 Oeste 0 -- -- 41
2020-03-02 14:00:00 22.2 21 Oeste 59 Oeste 0 -- -- 44
2020-03-02 13:00:00 21.5 18 Oeste 53 Sudoeste 0 -- -- 49
2020-03-02 12:00:00 19.7 20 Sudoeste 44 Oeste 0 -- -- 58
2020-03-02 11:00:00 18 17 Sudoeste 41 Sudoeste 0 -- -- 66
2020-03-02 10:00:00 15.6 21 Sudoeste 55 Sudoeste 0 -- -- 73
2020-03-02 09:00:00 14.1 13 Sudoeste 44 Sudoeste 0.2 -- -- 80
2020-03-02 08:00:00 14 14 Sudoeste 47 Sudoeste 0 -- -- 84
2020-03-02 07:00:00 15.2 20 Sudoeste 52 Sudoeste 0 -- -- 71
2020-03-02 06:00:00 15.2 23 Sudoeste 58 Sudoeste 0 -- -- 68
2020-03-02 05:00:00 15 24 Sudoeste 51 Sudoeste 0 -- -- 67
2020-03-02 04:00:00 14.8 18 Sudoeste 54 Sudoeste 0 -- -- 70
2020-03-02 03:00:00 14.7 15 Sudoeste 31 Sudoeste 0 -- -- 66
2020-03-02 02:00:00 14.5 13 Sudoeste 36 Sudoeste 0 -- -- 67
2020-03-02 01:00:00 14.6 9 Sudoeste 37 Sudoeste 0 -- -- 60
2020-03-02 00:00:00 15.3 21 Sudoeste 39 Oeste 0 -- -- 56
2020-03-01 23:00:00 14.9 10 Sudoeste 30 Sudoeste 0 -- -- 59
2020-03-01 22:00:00 14.1 7 Sudoeste 16 Sur 0 -- -- 68
2020-03-01 21:00:00 14.8 8 Sudoeste 31 Sudoeste 0 -- -- 63
2020-03-01 20:00:00 15.5 11 Sudoeste 28 Sudoeste 0 -- -- 62
2020-03-01 19:00:00 16.9 11 Sudoeste 28 Oeste 0 -- -- 56
2020-03-01 18:00:00 20.3 10 Sudoeste 31 Sudoeste 0 -- -- 45
2020-03-01 17:00:00 21.4 19 Sudoeste 35 Sudoeste 0 -- -- 42
2020-03-01 16:00:00 20.6 22 Sudoeste 39 Sudoeste 0 -- -- 45
2020-03-01 15:00:00 18.6 12 Sudoeste 25 Sudoeste 0 -- -- 53
2020-03-01 14:00:00 19 11 Sudoeste 29 Sudoeste 0 -- -- 53
2020-03-01 13:00:00 18.2 10 Oeste 33 Oeste 0 -- -- 51
2020-03-01 12:00:00 15.3 13 Sudoeste 32 Sudoeste 0 -- -- 58
2020-03-01 11:00:00 15.1 11 Sudoeste 31 Sudoeste 0 -- -- 57
2020-03-01 10:00:00 13.7 10 Sudoeste 27 Oeste 0 -- -- 61
2020-03-01 09:00:00 11.3 8 Sudoeste 18 Sudoeste 0 -- -- 68
2020-03-01 08:00:00 11.7 6 Sudoeste 17 Oeste 0 -- -- 66
2020-03-01 07:00:00 12.5 8 Sudoeste 27 Sudoeste 0 -- -- 64
2020-03-01 06:00:00 13.3 14 Sudoeste 36 Sudoeste 0 -- -- 61
2020-03-01 05:00:00 14 13 Sudoeste 41 Sudoeste 0 -- -- 65
2020-03-01 04:00:00 14.5 20 Sudoeste 58 Oeste 0 -- -- 63
2020-03-01 03:00:00 14.2 12 Sudoeste 38 Sudoeste 0 -- -- 71
2020-03-01 02:00:00 14 15 Sur 30 Sur 0 -- -- 82
2020-03-01 01:00:00 14.6 12 Sudoeste 30 Oeste 0 -- -- 80
2020-03-01 00:00:00 14.9 17 Sudoeste 36 Sudoeste 0 -- -- 75
2020-02-29 23:00:00 14.6 13 Sudoeste 31 Oeste 0 -- -- 75
2020-02-29 22:00:00 14.5 17 Sudoeste 39 Sudoeste 0 -- -- 74
2020-02-29 21:00:00 14.8 20 Sudoeste 34 Sudoeste 0 -- -- 71
2020-02-29 20:00:00 15 14 Sudoeste 31 Sudoeste 0 -- -- 69
2020-02-29 19:00:00 16.5 11 Sudoeste 30 Oeste 0 -- -- 59
2020-02-29 18:00:00 19 15 Sudoeste 30 Sudoeste 0 -- -- 47
2020-02-29 17:00:00 22.1 19 Sudoeste 32 Sudoeste 0 -- -- 40
2020-02-29 16:00:00 24.2 17 Sudoeste 31 Sudoeste 0 -- -- 34
2020-02-29 15:00:00 24 14 Sudoeste 36 Sudoeste 0 -- -- 35
2020-02-29 14:00:00 24.3 12 Sudoeste 26 Sudoeste 0 -- -- 30
2020-02-29 13:00:00 22.2 15 Sudoeste 31 Sudoeste 0 -- -- 34
2020-02-29 12:00:00 20.7 9 Sudoeste 31 Oeste 0 -- -- 34
2020-02-29 11:00:00 18.8 15 Sudoeste 29 Sudoeste 0 -- -- 31
2020-02-29 10:00:00 16 15 Sudoeste 25 Sudoeste 0 -- -- 35
2020-02-29 09:00:00 12.8 8 Sudoeste 20 Sudoeste 0 -- -- 41
2020-02-29 08:00:00 11.6 5 Sudoeste 14 Sudoeste 0 -- -- 38
2020-02-29 07:00:00 12.8 6 Sudoeste 14 Sur 0 -- -- 35
2020-02-29 06:00:00 12 5 Este 10 Oeste 0 -- -- 32
2020-02-29 05:00:00 10.2 2 Sudeste 6 Nordeste 0 -- -- 52
2020-02-29 04:00:00 10.4 3 Este 6 Sur 0 -- -- 56
2020-02-29 03:00:00 10.6 0 Calma 4 Sudoeste 0 -- -- 53
2020-02-29 02:00:00 10.7 0 Calma 3 Este 0 -- -- 52
2020-02-29 01:00:00 11 0 Calma 3 Este 0 -- -- 53
2020-02-29 00:00:00 11.4 0 Calma 3 Sudeste 0 -- -- 54
2020-02-28 23:00:00 11.9 0 Calma 3 Este 0 -- -- 63
2020-02-28 22:00:00 12.6 0 Calma 6 Nordeste 0 -- -- 54
2020-02-28 21:00:00 13.1 5 Nordeste 6 Nordeste 0 -- -- 63
2020-02-28 20:00:00 14.2 0 Calma 3 Este 0 -- -- 67
2020-02-28 19:00:00 16.9 0 Calma 10 Sudoeste 0 -- -- 57
2020-02-28 18:00:00 18.9 2 Sur 10 Sudoeste 0 -- -- 46
2020-02-28 17:00:00 19.1 3 Sudoeste 10 Nordeste 0 -- -- 47
2020-02-28 16:00:00 19.6 3 Noroeste 13 Sur 0 -- -- 45
2020-02-28 15:00:00 18.7 5 Nordeste 13 Nordeste 0 -- -- 46
2020-02-28 14:00:00 18.7 4 Nordeste 15 Nordeste 0 -- -- 48
2020-02-28 13:00:00 18 9 Nordeste 17 Este 0 -- -- 48
2020-02-28 12:00:00 18.7 5 Nordeste 12 Nordeste 0 -- -- 44
2020-02-28 11:00:00 17.6 3 Sudoeste 8 Nordeste 0 -- -- 44
2020-02-28 10:00:00 15.8 5 Este 10 Nordeste 0 -- -- 41
2020-02-28 09:00:00 12.1 0 Calma 9 Nordeste 0 -- -- 49
2020-02-28 08:00:00 11 5 Nordeste 10 Nordeste 0 -- -- 45
2020-02-28 07:00:00 11.4 0 Calma 8 Nordeste 0 -- -- 47
2020-02-28 06:00:00 10.7 0 Calma 3 Sudoeste 0 -- -- 47
2020-02-28 05:00:00 11.6 0 Calma 8 Nordeste 0 -- -- 44
2020-02-28 04:00:00 12.3 2 Sur 4 Sudoeste 0 -- -- 38
2020-02-28 03:00:00 15 2 Norte 20 Nordeste 0 -- -- 36
2020-02-28 02:00:00 12.7 6 Nordeste 12 Nordeste 0 -- -- 40
2020-02-28 01:00:00 12.5 3 Nordeste 6 Nordeste 0 -- -- 48
2020-02-28 00:00:00 12.8 0 Calma 8 Nordeste 0 -- -- 40